Flight Track Log - Related Links

Times and Time Zones

All times are in EDT time to prevent confusion due to time zone crossing. See the PRY1 flight status page for this flight to view local times or setup timezone preferences in your user account.

Time Position Orientation Groundspeed Altitude Reporting Facility
EDT Latitude Longitude Course Direction KTS MPH feet Rate Location/Type
09:52PM 41.8442 -91.6222 95° East 188 216 6,200  Level Chicago Center
09:53PM 41.8378 -91.5567 97° East 177 204 8,400 2,000 Climbing Chicago Center
09:54PM 41.8339 -91.4933 95° East 175 201 10,300 1,854 Climbing Chicago Center
09:55PM 41.8462 -91.2349 109° East  Level FlightAware Approximate
09:55PM 41.8294 -91.4275 95° East 175 201 12,200  Level Chicago Center
09:56PM 41.8303 -91.1441 96° East  Level FlightAware Approximate
09:56PM 41.8236 -91.3428 95° East 188 216 14,500  Level Chicago Center
09:57PM 41.8186 -91.2722 95° East 189 217 16,300 1,805 Climbing Chicago Center
09:58PM 41.8133 -91.1989 95° East 194 223 18,200 1,707 Climbing Chicago Center
09:59PM 41.8086 -91.1239 95° East 200 230 19,800 1,426 Climbing Chicago Center
10:00PM 41.8031 -91.0483 96° East 203 234 21,100 1,328 Climbing Chicago Center
10:01PM 41.7969 -90.9683 96° East 211 243 22,500 1,317 Climbing Chicago Center
10:02PM 41.7914 -90.8911 95° East 211 243 23,800 1,220 Climbing Chicago Center
10:03PM 41.7847 -90.7958 95° East 212 244 25,000 639 Climbing Chicago Center
10:04PM 41.7786 -90.7072 95° East 238 274 25,100 49 Climbing Chicago Center
10:05PM 41.7697 -90.6042 97° East 269 310 25,100 -49 Level Chicago Center
10:06PM 41.7625 -90.5022 95° East 273 314 25,000 -49 Descending Chicago Center
10:07PM 41.7547 -90.3961 96° East 281 323 25,000  Level Chicago Center
10:08PM 41.7464 -90.2906 96° East 282 325 25,000 49 Level Chicago Center
10:09PM 41.7392 -90.1847 95° East 282 325 25,100  Climbing Chicago Center
10:10PM 41.7297 -90.0806 97° East 283 326 25,000 -49 Descending Chicago Center
10:11PM 41.7222 -89.9758 95° East 283 326 25,000 49 Level Chicago Center
10:12PM 41.7136 -89.8700 96° East 283 326 25,100 49 Climbing Chicago Center
10:13PM 41.7047 -89.7639 96° East 284 327 25,100  Level Chicago Center
10:14PM 41.6956 -89.6572 97° East 287 330 25,100  Level Chicago Center
10:15PM 41.6875 -89.5461 96° East 287 330 25,100  Level Chicago Center
10:16PM 41.6781 -89.4389 97° East 289 333 25,100  Level Chicago Center
10:17PM 41.6667 -89.3111 97° East 289 333 25,100  Level Chicago Center
10:18PM 41.6583 -89.2056 96° East 288 331 25,100  Level Chicago Center
10:19PM 41.6486 -89.1014 97° East 285 328 25,100  Level Chicago Center
10:20PM 41.6392 -88.9978 97° East 285 328 25,100  Level Chicago Center
10:21PM 41.6297 -88.8939 97° East 284 327 25,100  Level Chicago Center
10:22PM 41.6203 -88.7889 97° East 284 327 25,100  Level Chicago Center
10:23PM 41.6111 -88.6856 97° East 284 327 25,100  Level Chicago Center
10:24PM 41.6014 -88.5817 97° East 284 327 25,100  Level Chicago Center
10:25PM 41.5914 -88.4767 97° East 283 326 25,100  Level Chicago Center
10:26PM 41.5819 -88.3717 97° East 284 327 25,100  Level Chicago Center
10:27PM 41.5714 -88.2644 97° East 285 328 25,100  Level Chicago Center
10:28PM 41.5603 -88.1558 98° East 288 331 25,100  Level Chicago Center
10:29PM 41.5508 -88.0472 97° East 289 333 25,100  Level Chicago Center
10:30PM 41.5400 -87.9369 97° East 291 335 25,100  Level Chicago Center
10:31PM 41.5283 -87.8289 98° East 292 336 25,100  Level Chicago Center
10:32PM 41.5158 -87.6975 97° East 294 338 25,100 -49 Level Chicago Center
10:33PM 41.5050 -87.5903 98° East 293 337 25,000  Descending Chicago Center
10:34PM 41.4939 -87.4833 98° East 293 337 25,100 49 Climbing Chicago Center
10:35PM 41.4833 -87.3767 97° East 292 336 25,100  Level Chicago Center
10:36PM 41.4719 -87.2697 98° East 292 336 25,100  Level Chicago Center
10:37PM 41.4606 -87.1633 98° East 291 335 25,100  Level Chicago Center
10:38PM 41.4489 -87.0561 98° East 291 335 25,100  Level Chicago Center
10:39PM 41.4383 -86.9517 98° East 288 331 25,100  Level Chicago Center
10:40PM 41.4261 -86.8467 99° East 287 330 25,100  Level Chicago Center
10:41PM 41.4156 -86.7425 98° East 285 328 25,100  Level Chicago Center
10:42PM 41.4028 -86.6317 99° East 281 323 25,100  Level Chicago Center
10:44PM 41.3911 -86.5281 99° East 282 325 25,100  Level Chicago Center
10:45PM 41.3803 -86.4231 98° East 283 326 25,100  Level Chicago Center
10:46PM 41.3686 -86.3192 98° East 284 327 25,100  Level Chicago Center
10:47PM 41.3558 -86.2150 99° East 285 328 25,100  Level Chicago Center
10:48PM 41.3447 -86.1108 98° East 284 327 25,100  Level Chicago Center
10:49PM 41.3297 -85.9858 99° East 284 327 25,100  Level Chicago Center
10:50PM 41.3175 -85.8817 99° East 284 327 25,100  Level Chicago Center
10:51PM 41.3056 -85.7769 99° East 285 328 25,100  Level Chicago Center
10:52PM 41.2922 -85.6725 100° East 286 329 25,100  Level Chicago Center
10:53PM 41.2806 -85.5656 98° East 295 339 25,100  Level Chicago Center
10:54PM 41.2675 -85.4606 99° East 293 337 25,100  Level Chicago Center
10:55PM 41.2547 -85.3567 99° East 290 334 25,100  Level Chicago Center
10:56PM 41.2422 -85.2522 99° East 290 334 25,100  Level Chicago Center
10:57PM 41.2294 -85.1464 99° East 291 335 25,100  Level Chicago Center
10:58PM 41.2136 -85.0203 99° East 290 334 25,100  Level Chicago Center
10:59PM 41.2006 -84.9164 99° East 290 334 25,100  Level Chicago Center
11:00PM 41.1869 -84.8100 100° East 290 334 25,100  Level Chicago Center
11:01PM 41.1739 -84.7042 99° East 291 335 25,100  Level Chicago Center
11:02PM 41.1597 -84.5994 100° East 291 335 25,100  Level Cleveland Center
11:03PM 41.1469 -84.4944 99° East 291 335 25,100  Level Cleveland Center
11:04PM 41.1322 -84.3889 100° East 291 335 25,100  Level Cleveland Center
11:05PM 41.1183 -84.2831 100° East 292 336 25,100  Level Cleveland Center
11:06PM 41.1044 -84.1772 100° East 292 336 25,100 -347 Level Cleveland Center
11:07PM 41.0903 -84.0714 100° East 292 336 24,400 -984 Descending Cleveland Center
11:08PM 41.0744 -83.9572 100° East 311 358 23,100 -1,230 Descending Cleveland Center
11:09PM 41.0603 -83.8439 99° East 312 359 21,900 -1,230 Descending Cleveland Center
11:10PM 41.0433 -83.7175 100° East 311 358 20,600 -1,230 Descending Cleveland Center
11:11PM 41.0272 -83.6056 101° East 311 358 19,400 -1,180 Descending Cleveland Center
11:12PM 41.0122 -83.4936 100° East 310 357 18,200 -1,180 Descending Cleveland Center
11:13PM 40.9972 -83.3850 100° East 305 351 17,000 -1,180 Descending Cleveland Center
11:14PM 40.9822 -83.2786 101° East 298 343 15,800 -1,131 Descending Cleveland Center
11:15PM 40.9669 -83.1733 101° East 293 337 14,700 -1,180 Descending Cleveland Center
11:16PM 40.9511 -83.0603 100° East 289 333 13,400 -1,230 Descending Cleveland Center
11:17PM 40.9358 -82.9558 101° East 289 333 12,200 -1,180 Descending Cleveland Center
11:18PM 40.9211 -82.8533 101° East 285 328 11,000 -1,131 Descending Cleveland Center
11:19PM 40.9067 -82.7511 101° East 282 325 9,900 -1,041 Descending Cleveland Center
11:20PM 40.8919 -82.6550 101° East 270 311 8,900 -1,041 Descending Cleveland Center
11:21PM 40.8808 -82.5767 101° East 225 259 7,800 -1,131 Descending Cleveland Center
11:22PM 40.8689 -82.4917 101° East 229 264 6,600 -1,131 Descending Cleveland Center
11:23PM 40.8553 -82.4042 102° East 237 273 5,500 -1,180 Descending Cleveland Center
11:24PM 40.8431 -82.3183 101° East 237 273 4,200 -793 Descending Cleveland Center
11:25PM 40.8358 -82.2472 98° East 237 273 3,900 -300 Descending Cleveland Center
11:27PM 40.8107 -82.1086 103° East  Level FlightAware Approximate
11:34PM 40.7612 -81.7790 90° East  Level Estimated
11:35PM 40.7612 -81.7790 90° East  Level Estimated
11:36PM 40.7612 -81.7790 90° East  Level Estimated

Login

Don't have an account? Register now (free) for customized features, flight alerts, and more!